sensor_id;sensor_type;location;lat;lon;timestamp;P1;durP1;ratioP1;P2;durP2;ratioP2
16294;SDS011;8255;49.560;8.244;2022-12-18T00:01:56;39.47;;;16.87;;
16294;SDS011;8255;49.560;8.244;2022-12-18T00:04:23;40.80;;;17.53;;
16294;SDS011;8255;49.560;8.244;2022-12-18T00:06:50;40.70;;;17.37;;
16294;SDS011;8255;49.560;8.244;2022-12-18T00:09:16;37.33;;;16.63;;
16294;SDS011;8255;49.560;8.244;2022-12-18T00:11:43;33.13;;;15.27;;
16294;SDS011;8255;49.560;8.244;2022-12-18T00:14:09;38.87;;;17.07;;
16294;SDS011;8255;49.560;8.244;2022-12-18T00:16:38;41.77;;;17.10;;
16294;SDS011;8255;49.560;8.244;2022-12-18T00:19:05;42.57;;;17.93;;
16294;SDS011;8255;49.560;8.244;2022-12-18T00:21:32;41.30;;;16.63;;
16294;SDS011;8255;49.560;8.244;2022-12-18T00:23:58;37.53;;;16.67;;
16294;SDS011;8255;49.560;8.244;2022-12-18T00:26:27;36.30;;;16.07;;
16294;SDS011;8255;49.560;8.244;2022-12-18T00:28:57;41.33;;;16.23;;
16294;SDS011;8255;49.560;8.244;2022-12-18T00:31:24;37.47;;;16.03;;
16294;SDS011;8255;49.560;8.244;2022-12-18T00:33:54;37.97;;;16.60;;
16294;SDS011;8255;49.560;8.244;2022-12-18T00:36:22;34.63;;;15.27;;
16294;SDS011;8255;49.560;8.244;2022-12-18T00:38:50;35.73;;;15.90;;
16294;SDS011;8255;49.560;8.244;2022-12-18T00:41:17;36.80;;;15.40;;
16294;SDS011;8255;49.560;8.244;2022-12-18T00:44:05;35.50;;;15.40;;
16294;SDS011;8255;49.560;8.244;2022-12-18T00:46:30;38.70;;;15.77;;
16294;SDS011;8255;49.560;8.244;2022-12-18T00:48:58;39.03;;;15.57;;
16294;SDS011;8255;49.560;8.244;2022-12-18T00:51:25;36.07;;;15.80;;
16294;SDS011;8255;49.560;8.244;2022-12-18T00:53:51;33.40;;;15.47;;
16294;SDS011;8255;49.560;8.244;2022-12-18T00:56:18;33.33;;;14.57;;
16294;SDS011;8255;49.560;8.244;2022-12-18T00:58:45;34.63;;;15.10;;
16294;SDS011;8255;49.560;8.244;2022-12-18T01:01:11;34.83;;;14.80;;
16294;SDS011;8255;49.560;8.244;2022-12-18T01:03:38;39.70;;;16.27;;
16294;SDS011;8255;49.560;8.244;2022-12-18T01:06:07;30.20;;;14.30;;
16294;SDS011;8255;49.560;8.244;2022-12-18T01:08:33;35.47;;;15.97;;
16294;SDS011;8255;49.560;8.244;2022-12-18T01:11:00;38.00;;;16.27;;
16294;SDS011;8255;49.560;8.244;2022-12-18T01:13:26;37.90;;;15.50;;
16294;SDS011;8255;49.560;8.244;2022-12-18T01:15:53;35.47;;;15.57;;
16294;SDS011;8255;49.560;8.244;2022-12-18T01:18:19;38.23;;;16.43;;
16294;SDS011;8255;49.560;8.244;2022-12-18T01:20:45;49.30;;;17.57;;
16294;SDS011;8255;49.560;8.244;2022-12-18T01:23:13;37.30;;;16.83;;
16294;SDS011;8255;49.560;8.244;2022-12-18T01:25:40;35.23;;;15.47;;
16294;SDS011;8255;49.560;8.244;2022-12-18T01:28:08;39.53;;;16.00;;
16294;SDS011;8255;49.560;8.244;2022-12-18T01:30:34;39.17;;;16.83;;
16294;SDS011;8255;49.560;8.244;2022-12-18T01:33:01;31.17;;;14.73;;
16294;SDS011;8255;49.560;8.244;2022-12-18T01:35:27;34.10;;;15.27;;
16294;SDS011;8255;49.560;8.244;2022-12-18T01:37:54;34.10;;;15.20;;
16294;SDS011;8255;49.560;8.244;2022-12-18T01:40:21;36.87;;;16.87;;
16294;SDS011;8255;49.560;8.244;2022-12-18T01:42:50;44.87;;;17.60;;
16294;SDS011;8255;49.560;8.244;2022-12-18T01:45:22;39.37;;;16.17;;
16294;SDS011;8255;49.560;8.244;2022-12-18T01:47:51;41.73;;;16.70;;
16294;SDS011;8255;49.560;8.244;2022-12-18T01:50:19;35.87;;;15.77;;
16294;SDS011;8255;49.560;8.244;2022-12-18T01:52:46;36.43;;;15.97;;
16294;SDS011;8255;49.560;8.244;2022-12-18T01:55:14;37.17;;;15.13;;
16294;SDS011;8255;49.560;8.244;2022-12-18T01:57:43;39.93;;;16.33;;
16294;SDS011;8255;49.560;8.244;2022-12-18T02:00:11;34.93;;;14.87;;
16294;SDS011;8255;49.560;8.244;2022-12-18T02:02:40;38.30;;;15.67;;
16294;SDS011;8255;49.560;8.244;2022-12-18T02:05:07;42.17;;;17.60;;
16294;SDS011;8255;49.560;8.244;2022-12-18T02:07:37;42.47;;;16.63;;
16294;SDS011;8255;49.560;8.244;2022-12-18T02:10:09;48.60;;;16.67;;
16294;SDS011;8255;49.560;8.244;2022-12-18T02:12:42;38.70;;;16.00;;
16294;SDS011;8255;49.560;8.244;2022-12-18T02:15:13;35.00;;;14.87;;
16294;SDS011;8255;49.560;8.244;2022-12-18T02:17:43;42.17;;;17.03;;
16294;SDS011;8255;49.560;8.244;2022-12-18T02:20:12;37.97;;;15.93;;
16294;SDS011;8255;49.560;8.244;2022-12-18T02:22:42;41.80;;;17.10;;
16294;SDS011;8255;49.560;8.244;2022-12-18T02:25:16;38.30;;;16.10;;
16294;SDS011;8255;49.560;8.244;2022-12-18T02:27:48;37.17;;;16.33;;
16294;SDS011;8255;49.560;8.244;2022-12-18T02:30:16;44.00;;;17.03;;
16294;SDS011;8255;49.560;8.244;2022-12-18T02:32:46;43.80;;;16.60;;
16294;SDS011;8255;49.560;8.244;2022-12-18T02:35:14;36.90;;;14.67;;
16294;SDS011;8255;49.560;8.244;2022-12-18T02:37:42;38.90;;;16.43;;
16294;SDS011;8255;49.560;8.244;2022-12-18T02:40:09;42.37;;;15.40;;
16294;SDS011;8255;49.560;8.244;2022-12-18T02:42:36;35.97;;;16.43;;
16294;SDS011;8255;49.560;8.244;2022-12-18T02:45:07;39.70;;;16.60;;
16294;SDS011;8255;49.560;8.244;2022-12-18T02:47:36;42.27;;;16.73;;
16294;SDS011;8255;49.560;8.244;2022-12-18T02:50:05;40.17;;;16.27;;
16294;SDS011;8255;49.560;8.244;2022-12-18T02:52:35;38.37;;;16.60;;
16294;SDS011;8255;49.560;8.244;2022-12-18T02:55:12;40.27;;;16.27;;
16294;SDS011;8255;49.560;8.244;2022-12-18T02:57:42;43.93;;;16.63;;
16294;SDS011;8255;49.560;8.244;2022-12-18T03:00:12;39.87;;;16.80;;
16294;SDS011;8255;49.560;8.244;2022-12-18T03:02:41;39.10;;;17.30;;
16294;SDS011;8255;49.560;8.244;2022-12-18T03:05:12;44.83;;;17.80;;
16294;SDS011;8255;49.560;8.244;2022-12-18T03:07:41;41.27;;;17.53;;
16294;SDS011;8255;49.560;8.244;2022-12-18T03:10:11;41.17;;;17.47;;
16294;SDS011;8255;49.560;8.244;2022-12-18T03:12:40;36.97;;;16.47;;
16294;SDS011;8255;49.560;8.244;2022-12-18T03:15:09;44.77;;;17.37;;
16294;SDS011;8255;49.560;8.244;2022-12-18T03:17:39;40.47;;;16.90;;
16294;SDS011;8255;49.560;8.244;2022-12-18T03:20:08;34.70;;;15.33;;
16294;SDS011;8255;49.560;8.244;2022-12-18T03:22:36;43.97;;;16.90;;
16294;SDS011;8255;49.560;8.244;2022-12-18T03:25:05;36.87;;;16.13;;
16294;SDS011;8255;49.560;8.244;2022-12-18T03:27:33;37.50;;;15.70;;
16294;SDS011;8255;49.560;8.244;2022-12-18T03:30:07;39.40;;;17.50;;
16294;SDS011;8255;49.560;8.244;2022-12-18T03:32:39;36.60;;;16.00;;
16294;SDS011;8255;49.560;8.244;2022-12-18T03:35:07;33.60;;;15.67;;
16294;SDS011;8255;49.560;8.244;2022-12-18T03:37:36;38.33;;;16.60;;
16294;SDS011;8255;49.560;8.244;2022-12-18T03:40:03;38.33;;;16.43;;
16294;SDS011;8255;49.560;8.244;2022-12-18T03:42:32;35.37;;;15.40;;
16294;SDS011;8255;49.560;8.244;2022-12-18T03:45:09;41.73;;;15.63;;
16294;SDS011;8255;49.560;8.244;2022-12-18T03:47:38;43.43;;;16.60;;
16294;SDS011;8255;49.560;8.244;2022-12-18T03:50:09;35.83;;;15.20;;
16294;SDS011;8255;49.560;8.244;2022-12-18T03:52:40;40.87;;;16.97;;
16294;SDS011;8255;49.560;8.244;2022-12-18T03:55:08;42.20;;;16.23;;
16294;SDS011;8255;49.560;8.244;2022-12-18T03:57:36;35.83;;;15.63;;
16294;SDS011;8255;49.560;8.244;2022-12-18T04:00:05;37.77;;;15.00;;
16294;SDS011;8255;49.560;8.244;2022-12-18T04:03:08;37.57;;;15.23;;
16294;SDS011;8255;49.560;8.244;2022-12-18T04:05:42;33.73;;;15.20;;
16294;SDS011;8255;49.560;8.244;2022-12-18T04:08:09;36.97;;;15.70;;
16294;SDS011;8255;49.560;8.244;2022-12-18T04:10:41;30.37;;;14.53;;
16294;SDS011;8255;49.560;8.244;2022-12-18T04:13:08;34.50;;;15.50;;
16294;SDS011;8255;49.560;8.244;2022-12-18T04:15:35;29.90;;;14.73;;
16294;SDS011;8255;49.560;8.244;2022-12-18T04:18:04;40.10;;;14.83;;
16294;SDS011;8255;49.560;8.244;2022-12-18T04:20:38;35.03;;;15.53;;
16294;SDS011;8255;49.560;8.244;2022-12-18T04:23:06;35.80;;;15.40;;
16294;SDS011;8255;49.560;8.244;2022-12-18T04:25:32;39.47;;;15.90;;
16294;SDS011;8255;49.560;8.244;2022-12-18T04:28:09;32.60;;;15.63;;
16294;SDS011;8255;49.560;8.244;2022-12-18T04:30:37;33.17;;;15.03;;
16294;SDS011;8255;49.560;8.244;2022-12-18T04:33:07;35.37;;;16.03;;
16294;SDS011;8255;49.560;8.244;2022-12-18T04:35:34;34.13;;;15.30;;
16294;SDS011;8255;49.560;8.244;2022-12-18T04:38:00;38.97;;;15.53;;
16294;SDS011;8255;49.560;8.244;2022-12-18T04:40:28;38.40;;;16.10;;
16294;SDS011;8255;49.560;8.244;2022-12-18T04:42:54;34.00;;;15.20;;
16294;SDS011;8255;49.560;8.244;2022-12-18T04:45:20;38.10;;;15.93;;
16294;SDS011;8255;49.560;8.244;2022-12-18T04:47:47;38.90;;;16.07;;
16294;SDS011;8255;49.560;8.244;2022-12-18T04:50:13;32.93;;;15.10;;
16294;SDS011;8255;49.560;8.244;2022-12-18T04:52:39;32.97;;;15.40;;
16294;SDS011;8255;49.560;8.244;2022-12-18T04:55:06;34.57;;;14.97;;
16294;SDS011;8255;49.560;8.244;2022-12-18T04:57:34;35.63;;;15.90;;
16294;SDS011;8255;49.560;8.244;2022-12-18T05:00:00;37.27;;;15.13;;
16294;SDS011;8255;49.560;8.244;2022-12-18T05:02:26;32.63;;;15.67;;
16294;SDS011;8255;49.560;8.244;2022-12-18T05:04:53;35.23;;;15.90;;
16294;SDS011;8255;49.560;8.244;2022-12-18T05:07:19;33.97;;;15.27;;
16294;SDS011;8255;49.560;8.244;2022-12-18T05:09:45;39.87;;;16.97;;
16294;SDS011;8255;49.560;8.244;2022-12-18T05:12:12;34.13;;;16.27;;
16294;SDS011;8255;49.560;8.244;2022-12-18T05:14:39;35.20;;;15.37;;
16294;SDS011;8255;49.560;8.244;2022-12-18T05:17:06;33.17;;;15.03;;
16294;SDS011;8255;49.560;8.244;2022-12-18T05:19:32;36.07;;;14.93;;
16294;SDS011;8255;49.560;8.244;2022-12-18T05:21:59;34.73;;;16.80;;
16294;SDS011;8255;49.560;8.244;2022-12-18T05:24:26;39.20;;;17.80;;
16294;SDS011;8255;49.560;8.244;2022-12-18T05:26:52;33.87;;;15.07;;
16294;SDS011;8255;49.560;8.244;2022-12-18T05:29:19;33.77;;;15.03;;
16294;SDS011;8255;49.560;8.244;2022-12-18T05:31:46;34.43;;;15.57;;
16294;SDS011;8255;49.560;8.244;2022-12-18T05:34:13;29.60;;;14.97;;
16294;SDS011;8255;49.560;8.244;2022-12-18T05:36:39;32.83;;;15.73;;
16294;SDS011;8255;49.560;8.244;2022-12-18T05:39:05;37.87;;;16.30;;
16294;SDS011;8255;49.560;8.244;2022-12-18T05:41:32;36.97;;;15.33;;
16294;SDS011;8255;49.560;8.244;2022-12-18T05:43:58;31.70;;;14.57;;
16294;SDS011;8255;49.560;8.244;2022-12-18T05:46:25;39.30;;;16.37;;
16294;SDS011;8255;49.560;8.244;2022-12-18T05:48:52;39.83;;;15.60;;
16294;SDS011;8255;49.560;8.244;2022-12-18T05:51:19;38.77;;;15.33;;
16294;SDS011;8255;49.560;8.244;2022-12-18T05:53:46;34.17;;;14.37;;
16294;SDS011;8255;49.560;8.244;2022-12-18T05:56:14;40.70;;;15.80;;
16294;SDS011;8255;49.560;8.244;2022-12-18T05:58:40;34.63;;;15.03;;
16294;SDS011;8255;49.560;8.244;2022-12-18T06:01:07;37.70;;;16.07;;
16294;SDS011;8255;49.560;8.244;2022-12-18T06:03:34;36.33;;;15.27;;
16294;SDS011;8255;49.560;8.244;2022-12-18T06:06:02;30.63;;;14.37;;
16294;SDS011;8255;49.560;8.244;2022-12-18T06:08:28;35.83;;;15.33;;
16294;SDS011;8255;49.560;8.244;2022-12-18T06:10:55;36.37;;;15.57;;
16294;SDS011;8255;49.560;8.244;2022-12-18T06:13:21;34.20;;;15.40;;
16294;SDS011;8255;49.560;8.244;2022-12-18T06:15:47;39.57;;;15.63;;
16294;SDS011;8255;49.560;8.244;2022-12-18T06:18:14;38.67;;;16.27;;
16294;SDS011;8255;49.560;8.244;2022-12-18T06:20:40;41.33;;;17.60;;
16294;SDS011;8255;49.560;8.244;2022-12-18T06:23:08;34.63;;;15.17;;
16294;SDS011;8255;49.560;8.244;2022-12-18T06:25:36;36.47;;;15.77;;
16294;SDS011;8255;49.560;8.244;2022-12-18T06:28:03;43.87;;;16.57;;
16294;SDS011;8255;49.560;8.244;2022-12-18T06:30:29;40.97;;;18.07;;
16294;SDS011;8255;49.560;8.244;2022-12-18T06:32:55;39.73;;;16.17;;
16294;SDS011;8255;49.560;8.244;2022-12-18T06:35:22;40.80;;;16.73;;
16294;SDS011;8255;49.560;8.244;2022-12-18T06:37:49;34.43;;;16.97;;
16294;SDS011;8255;49.560;8.244;2022-12-18T06:40:17;44.37;;;16.73;;
16294;SDS011;8255;49.560;8.244;2022-12-18T06:42:43;38.70;;;15.97;;
16294;SDS011;8255;49.560;8.244;2022-12-18T06:45:09;40.73;;;16.70;;
16294;SDS011;8255;49.560;8.244;2022-12-18T06:47:39;42.50;;;17.37;;
16294;SDS011;8255;49.560;8.244;2022-12-18T06:50:06;39.67;;;16.43;;
16294;SDS011;8255;49.560;8.244;2022-12-18T06:52:33;41.07;;;15.80;;
16294;SDS011;8255;49.560;8.244;2022-12-18T06:54:59;39.17;;;15.83;;
16294;SDS011;8255;49.560;8.244;2022-12-18T06:57:27;37.90;;;17.10;;
16294;SDS011;8255;49.560;8.244;2022-12-18T06:59:54;35.00;;;15.93;;
16294;SDS011;8255;49.560;8.244;2022-12-18T07:02:20;38.77;;;16.80;;
16294;SDS011;8255;49.560;8.244;2022-12-18T07:04:49;46.92;;;24.25;;
16294;SDS011;8255;49.560;8.244;2022-12-18T07:07:16;50.45;;;25.65;;
16294;SDS011;8255;49.560;8.244;2022-12-18T07:09:42;41.40;;;20.07;;
16294;SDS011;8255;49.560;8.244;2022-12-18T07:12:08;38.23;;;17.83;;
16294;SDS011;8255;49.560;8.244;2022-12-18T07:14:36;38.60;;;17.53;;
16294;SDS011;8255;49.560;8.244;2022-12-18T07:17:02;42.97;;;18.47;;
16294;SDS011;8255;49.560;8.244;2022-12-18T07:19:29;39.50;;;16.90;;
16294;SDS011;8255;49.560;8.244;2022-12-18T07:21:55;37.47;;;17.60;;
16294;SDS011;8255;49.560;8.244;2022-12-18T07:24:21;39.53;;;16.77;;
16294;SDS011;8255;49.560;8.244;2022-12-18T07:26:48;37.43;;;17.30;;
16294;SDS011;8255;49.560;8.244;2022-12-18T07:29:14;43.80;;;17.47;;
16294;SDS011;8255;49.560;8.244;2022-12-18T07:31:42;40.10;;;16.50;;
16294;SDS011;8255;49.560;8.244;2022-12-18T07:34:09;43.37;;;18.23;;
16294;SDS011;8255;49.560;8.244;2022-12-18T07:36:36;40.90;;;17.37;;
16294;SDS011;8255;49.560;8.244;2022-12-18T07:39:02;40.17;;;17.17;;
16294;SDS011;8255;49.560;8.244;2022-12-18T07:41:28;44.03;;;17.60;;
16294;SDS011;8255;49.560;8.244;2022-12-18T07:43:55;42.23;;;17.03;;
16294;SDS011;8255;49.560;8.244;2022-12-18T07:46:21;43.33;;;17.20;;
16294;SDS011;8255;49.560;8.244;2022-12-18T07:48:49;38.63;;;17.57;;
16294;SDS011;8255;49.560;8.244;2022-12-18T07:51:15;33.37;;;16.07;;
16294;SDS011;8255;49.560;8.244;2022-12-18T07:53:42;37.63;;;16.50;;
16294;SDS011;8255;49.560;8.244;2022-12-18T07:56:09;41.37;;;16.77;;
16294;SDS011;8255;49.560;8.244;2022-12-18T07:58:36;37.30;;;15.60;;
16294;SDS011;8255;49.560;8.244;2022-12-18T08:01:03;39.30;;;17.40;;
16294;SDS011;8255;49.560;8.244;2022-12-18T08:03:30;39.20;;;17.40;;
16294;SDS011;8255;49.560;8.244;2022-12-18T08:06:02;38.53;;;16.30;;
16294;SDS011;8255;49.560;8.244;2022-12-18T08:08:29;41.47;;;17.27;;
16294;SDS011;8255;49.560;8.244;2022-12-18T08:10:55;39.60;;;16.30;;
16294;SDS011;8255;49.560;8.244;2022-12-18T08:13:22;39.67;;;16.70;;
16294;SDS011;8255;49.560;8.244;2022-12-18T08:15:54;40.80;;;17.37;;
16294;SDS011;8255;49.560;8.244;2022-12-18T08:18:21;36.67;;;17.50;;
16294;SDS011;8255;49.560;8.244;2022-12-18T08:20:47;37.50;;;16.93;;
16294;SDS011;8255;49.560;8.244;2022-12-18T08:23:15;41.70;;;18.00;;
16294;SDS011;8255;49.560;8.244;2022-12-18T08:25:41;43.20;;;17.47;;
16294;SDS011;8255;49.560;8.244;2022-12-18T08:28:07;37.30;;;16.77;;
16294;SDS011;8255;49.560;8.244;2022-12-18T08:30:34;40.77;;;17.07;;
16294;SDS011;8255;49.560;8.244;2022-12-18T08:33:01;44.20;;;19.30;;
16294;SDS011;8255;49.560;8.244;2022-12-18T08:35:27;41.93;;;17.93;;
16294;SDS011;8255;49.560;8.244;2022-12-18T08:37:54;40.30;;;17.80;;
16294;SDS011;8255;49.560;8.244;2022-12-18T08:40:21;47.37;;;18.67;;
16294;SDS011;8255;49.560;8.244;2022-12-18T08:42:48;38.73;;;17.13;;
16294;SDS011;8255;49.560;8.244;2022-12-18T08:45:32;39.80;;;18.13;;
16294;SDS011;8255;49.560;8.244;2022-12-18T08:47:59;43.23;;;19.07;;
16294;SDS011;8255;49.560;8.244;2022-12-18T08:50:26;44.93;;;18.50;;
16294;SDS011;8255;49.560;8.244;2022-12-18T08:52:52;38.37;;;16.97;;
16294;SDS011;8255;49.560;8.244;2022-12-18T08:55:18;45.07;;;18.13;;
16294;SDS011;8255;49.560;8.244;2022-12-18T08:57:48;42.00;;;17.87;;
16294;SDS011;8255;49.560;8.244;2022-12-18T09:00:15;44.80;;;19.10;;
16294;SDS011;8255;49.560;8.244;2022-12-18T09:02:41;41.90;;;18.67;;
16294;SDS011;8255;49.560;8.244;2022-12-18T09:05:08;45.07;;;20.13;;
16294;SDS011;8255;49.560;8.244;2022-12-18T09:07:34;45.10;;;19.33;;
16294;SDS011;8255;49.560;8.244;2022-12-18T09:10:01;43.60;;;18.70;;
16294;SDS011;8255;49.560;8.244;2022-12-18T09:12:27;47.63;;;19.97;;
16294;SDS011;8255;49.560;8.244;2022-12-18T09:14:55;44.33;;;18.47;;
16294;SDS011;8255;49.560;8.244;2022-12-18T09:17:21;42.50;;;19.43;;
16294;SDS011;8255;49.560;8.244;2022-12-18T09:19:48;42.40;;;19.20;;
16294;SDS011;8255;49.560;8.244;2022-12-18T09:22:14;49.23;;;20.17;;
16294;SDS011;8255;49.560;8.244;2022-12-18T09:24:40;48.53;;;19.97;;
16294;SDS011;8255;49.560;8.244;2022-12-18T09:27:07;45.30;;;20.43;;
16294;SDS011;8255;49.560;8.244;2022-12-18T09:29:33;45.20;;;19.13;;
16294;SDS011;8255;49.560;8.244;2022-12-18T09:32:01;43.37;;;19.33;;
16294;SDS011;8255;49.560;8.244;2022-12-18T09:34:27;56.23;;;22.10;;
16294;SDS011;8255;49.560;8.244;2022-12-18T09:36:54;53.63;;;20.77;;
16294;SDS011;8255;49.560;8.244;2022-12-18T09:39:20;45.40;;;19.73;;
16294;SDS011;8255;49.560;8.244;2022-12-18T09:41:47;45.80;;;20.27;;
16294;SDS011;8255;49.560;8.244;2022-12-18T09:44:22;49.43;;;21.07;;
16294;SDS011;8255;49.560;8.244;2022-12-18T09:46:52;53.67;;;22.10;;
16294;SDS011;8255;49.560;8.244;2022-12-18T09:49:21;46.97;;;20.30;;
16294;SDS011;8255;49.560;8.244;2022-12-18T09:51:49;50.10;;;21.67;;
16294;SDS011;8255;49.560;8.244;2022-12-18T09:54:18;51.93;;;21.47;;
16294;SDS011;8255;49.560;8.244;2022-12-18T09:56:46;48.17;;;22.47;;
16294;SDS011;8255;49.560;8.244;2022-12-18T09:59:16;53.07;;;23.20;;
16294;SDS011;8255;49.560;8.244;2022-12-18T10:01:44;46.00;;;21.10;;
16294;SDS011;8255;49.560;8.244;2022-12-18T10:04:10;46.40;;;20.83;;
16294;SDS011;8255;49.560;8.244;2022-12-18T10:06:39;46.97;;;19.97;;
16294;SDS011;8255;49.560;8.244;2022-12-18T10:09:08;46.33;;;20.13;;
16294;SDS011;8255;49.560;8.244;2022-12-18T10:11:40;44.03;;;21.20;;
16294;SDS011;8255;49.560;8.244;2022-12-18T10:14:10;43.53;;;21.07;;
16294;SDS011;8255;49.560;8.244;2022-12-18T10:16:41;46.07;;;21.87;;
16294;SDS011;8255;49.560;8.244;2022-12-18T10:19:13;46.47;;;21.67;;
16294;SDS011;8255;49.560;8.244;2022-12-18T10:21:45;47.50;;;20.80;;
16294;SDS011;8255;49.560;8.244;2022-12-18T10:24:17;41.20;;;20.27;;
16294;SDS011;8255;49.560;8.244;2022-12-18T10:26:45;40.67;;;20.20;;
16294;SDS011;8255;49.560;8.244;2022-12-18T10:29:13;45.87;;;22.00;;
16294;SDS011;8255;49.560;8.244;2022-12-18T10:31:40;46.43;;;22.47;;
16294;SDS011;8255;49.560;8.244;2022-12-18T10:34:08;45.37;;;20.60;;
16294;SDS011;8255;49.560;8.244;2022-12-18T10:36:35;38.23;;;19.23;;
16294;SDS011;8255;49.560;8.244;2022-12-18T10:39:08;43.27;;;21.17;;
16294;SDS011;8255;49.560;8.244;2022-12-18T10:41:39;41.33;;;19.97;;
16294;SDS011;8255;49.560;8.244;2022-12-18T10:44:10;37.00;;;19.23;;
16294;SDS011;8255;49.560;8.244;2022-12-18T10:46:37;37.43;;;19.77;;
16294;SDS011;8255;49.560;8.244;2022-12-18T10:49:03;42.07;;;20.00;;
16294;SDS011;8255;49.560;8.244;2022-12-18T10:51:30;45.30;;;21.50;;
16294;SDS011;8255;49.560;8.244;2022-12-18T10:53:59;45.20;;;21.90;;
16294;SDS011;8255;49.560;8.244;2022-12-18T10:56:28;39.60;;;20.63;;
16294;SDS011;8255;49.560;8.244;2022-12-18T10:58:56;43.13;;;21.50;;
16294;SDS011;8255;49.560;8.244;2022-12-18T11:01:23;41.43;;;20.37;;
16294;SDS011;8255;49.560;8.244;2022-12-18T11:03:58;44.83;;;21.27;;
16294;SDS011;8255;49.560;8.244;2022-12-18T11:06:25;37.57;;;20.20;;
16294;SDS011;8255;49.560;8.244;2022-12-18T11:08:57;43.13;;;21.00;;
16294;SDS011;8255;49.560;8.244;2022-12-18T11:11:23;41.47;;;21.07;;
16294;SDS011;8255;49.560;8.244;2022-12-18T11:13:57;40.67;;;20.80;;
16294;SDS011;8255;49.560;8.244;2022-12-18T11:16:25;40.50;;;21.47;;
16294;SDS011;8255;49.560;8.244;2022-12-18T11:18:51;39.10;;;21.60;;
16294;SDS011;8255;49.560;8.244;2022-12-18T11:21:18;42.80;;;22.17;;
16294;SDS011;8255;49.560;8.244;2022-12-18T11:23:46;45.07;;;22.37;;
16294;SDS011;8255;49.560;8.244;2022-12-18T11:26:12;44.77;;;22.43;;
16294;SDS011;8255;49.560;8.244;2022-12-18T11:28:39;43.13;;;21.77;;
16294;SDS011;8255;49.560;8.244;2022-12-18T11:31:21;43.23;;;22.67;;
16294;SDS011;8255;49.560;8.244;2022-12-18T11:36:30;46.10;;;21.70;;
16294;SDS011;8255;49.560;8.244;2022-12-18T11:38:59;42.40;;;22.20;;
16294;SDS011;8255;49.560;8.244;2022-12-18T11:41:27;46.77;;;22.03;;
16294;SDS011;8255;49.560;8.244;2022-12-18T11:44:10;45.23;;;23.13;;
16294;SDS011;8255;49.560;8.244;2022-12-18T11:46:43;38.60;;;19.47;;
16294;SDS011;8255;49.560;8.244;2022-12-18T11:49:12;43.47;;;22.20;;
16294;SDS011;8255;49.560;8.244;2022-12-18T11:51:41;44.20;;;22.50;;
16294;SDS011;8255;49.560;8.244;2022-12-18T11:54:09;46.53;;;23.20;;
16294;SDS011;8255;49.560;8.244;2022-12-18T11:56:39;45.97;;;23.17;;
16294;SDS011;8255;49.560;8.244;2022-12-18T11:59:08;39.17;;;21.90;;
16294;SDS011;8255;49.560;8.244;2022-12-18T12:01:44;40.53;;;21.30;;
16294;SDS011;8255;49.560;8.244;2022-12-18T12:04:19;41.33;;;20.77;;
16294;SDS011;8255;49.560;8.244;2022-12-18T12:06:49;39.00;;;21.40;;
16294;SDS011;8255;49.560;8.244;2022-12-18T12:09:19;41.87;;;21.93;;
16294;SDS011;8255;49.560;8.244;2022-12-18T12:11:50;42.73;;;21.70;;
16294;SDS011;8255;49.560;8.244;2022-12-18T12:14:23;39.03;;;21.20;;
16294;SDS011;8255;49.560;8.244;2022-12-18T12:16:53;40.87;;;21.13;;
16294;SDS011;8255;49.560;8.244;2022-12-18T12:19:26;39.07;;;21.10;;
16294;SDS011;8255;49.560;8.244;2022-12-18T12:21:58;38.93;;;20.13;;
16294;SDS011;8255;49.560;8.244;2022-12-18T12:24:30;41.50;;;20.10;;
16294;SDS011;8255;49.560;8.244;2022-12-18T12:27:02;37.47;;;20.33;;
16294;SDS011;8255;49.560;8.244;2022-12-18T12:29:37;34.97;;;20.37;;
16294;SDS011;8255;49.560;8.244;2022-12-18T12:32:14;38.17;;;20.73;;
16294;SDS011;8255;49.560;8.244;2022-12-18T12:34:45;41.93;;;21.87;;
16294;SDS011;8255;49.560;8.244;2022-12-18T12:37:17;39.63;;;21.03;;
16294;SDS011;8255;49.560;8.244;2022-12-18T12:39:45;37.93;;;21.43;;
16294;SDS011;8255;49.560;8.244;2022-12-18T12:42:15;39.13;;;21.47;;
16294;SDS011;8255;49.560;8.244;2022-12-18T12:45:01;32.97;;;20.30;;
16294;SDS011;8255;49.560;8.244;2022-12-18T12:47:31;35.93;;;22.20;;
16294;SDS011;8255;49.560;8.244;2022-12-18T12:49:59;36.27;;;21.97;;
16294;SDS011;8255;49.560;8.244;2022-12-18T12:52:28;36.83;;;21.17;;
16294;SDS011;8255;49.560;8.244;2022-12-18T12:54:57;35.17;;;21.50;;
16294;SDS011;8255;49.560;8.244;2022-12-18T12:57:26;37.87;;;22.23;;
16294;SDS011;8255;49.560;8.244;2022-12-18T12:59:57;41.23;;;22.17;;
16294;SDS011;8255;49.560;8.244;2022-12-18T13:02:26;36.20;;;20.50;;
16294;SDS011;8255;49.560;8.244;2022-12-18T13:04:56;46.80;;;25.83;;
16294;SDS011;8255;49.560;8.244;2022-12-18T13:07:26;40.13;;;22.57;;
16294;SDS011;8255;49.560;8.244;2022-12-18T13:12:50;42.07;;;22.63;;
16294;SDS011;8255;49.560;8.244;2022-12-18T13:15:22;43.57;;;24.47;;
16294;SDS011;8255;49.560;8.244;2022-12-18T13:17:49;44.03;;;22.63;;
16294;SDS011;8255;49.560;8.244;2022-12-18T13:20:33;41.47;;;22.50;;
16294;SDS011;8255;49.560;8.244;2022-12-18T13:23:00;42.50;;;22.83;;
16294;SDS011;8255;49.560;8.244;2022-12-18T13:25:31;42.10;;;23.73;;
16294;SDS011;8255;49.560;8.244;2022-12-18T13:27:59;41.30;;;22.60;;
16294;SDS011;8255;49.560;8.244;2022-12-18T13:30:49;46.50;;;25.73;;
16294;SDS011;8255;49.560;8.244;2022-12-18T13:36:23;47.73;;;24.00;;
16294;SDS011;8255;49.560;8.244;2022-12-18T13:41:32;47.30;;;25.47;;
16294;SDS011;8255;49.560;8.244;2022-12-18T13:44:11;44.83;;;25.07;;
16294;SDS011;8255;49.560;8.244;2022-12-18T13:46:42;44.13;;;24.40;;
16294;SDS011;8255;49.560;8.244;2022-12-18T13:49:16;41.50;;;23.23;;
16294;SDS011;8255;49.560;8.244;2022-12-18T13:51:47;48.10;;;24.10;;
16294;SDS011;8255;49.560;8.244;2022-12-18T13:54:17;42.73;;;24.13;;
16294;SDS011;8255;49.560;8.244;2022-12-18T13:56:45;43.20;;;24.90;;
16294;SDS011;8255;49.560;8.244;2022-12-18T13:59:13;43.67;;;24.00;;
16294;SDS011;8255;49.560;8.244;2022-12-18T14:01:46;43.63;;;23.67;;
16294;SDS011;8255;49.560;8.244;2022-12-18T14:04:18;42.67;;;24.30;;
16294;SDS011;8255;49.560;8.244;2022-12-18T14:06:46;46.03;;;25.10;;
16294;SDS011;8255;49.560;8.244;2022-12-18T14:09:13;45.67;;;24.93;;
16294;SDS011;8255;49.560;8.244;2022-12-18T14:11:40;83.87;;;41.63;;
16294;SDS011;8255;49.560;8.244;2022-12-18T14:14:07;61.57;;;30.27;;
16294;SDS011;8255;49.560;8.244;2022-12-18T14:16:33;44.63;;;24.47;;
16294;SDS011;8255;49.560;8.244;2022-12-18T14:19:00;46.23;;;25.27;;
16294;SDS011;8255;49.560;8.244;2022-12-18T14:21:27;44.80;;;24.77;;
16294;SDS011;8255;49.560;8.244;2022-12-18T14:24:04;44.60;;;24.93;;
16294;SDS011;8255;49.560;8.244;2022-12-18T14:26:31;46.73;;;24.43;;
16294;SDS011;8255;49.560;8.244;2022-12-18T14:28:59;45.20;;;25.83;;
16294;SDS011;8255;49.560;8.244;2022-12-18T14:31:27;49.67;;;25.60;;
16294;SDS011;8255;49.560;8.244;2022-12-18T14:33:53;50.10;;;26.13;;
16294;SDS011;8255;49.560;8.244;2022-12-18T14:36:20;51.60;;;26.87;;
16294;SDS011;8255;49.560;8.244;2022-12-18T14:38:48;47.27;;;26.57;;
16294;SDS011;8255;49.560;8.244;2022-12-18T14:41:16;48.57;;;26.03;;
16294;SDS011;8255;49.560;8.244;2022-12-18T14:43:43;44.83;;;24.90;;
16294;SDS011;8255;49.560;8.244;2022-12-18T14:46:25;42.23;;;23.97;;
16294;SDS011;8255;49.560;8.244;2022-12-18T14:48:53;50.63;;;26.13;;
16294;SDS011;8255;49.560;8.244;2022-12-18T14:51:20;53.43;;;25.83;;
16294;SDS011;8255;49.560;8.244;2022-12-18T14:53:47;50.67;;;26.40;;